< < Back
Terminal Aerodrome Forecast


Current Version              Previous Versions:   1  2  3  4  5  6  7  8  9  

Terminal Aerodrome Forecast

558
FTUS44 KOHX 251300 AAA
TAFCSV
TAF AMD
KCSV 251303Z 2513/2612 19011KT 6SM -SHRA VCTS BKN005 OVC010CB
     FM251500 22012KT P6SM VCTS BKN015CB BKN035
     FM251900 23012G22KT P6SM VCTS BKN050CB
     FM260000 23010KT 6SM -SHRA BKN035 BKN050
     FM260600 29010KT P6SM BKN025 OVC035
     FM260900 31007KT 4SM BR OVC008=

Latest METAR

583
SAUS70 KWBC 252100 RRB
MTRCSV
METAR KCSV 252053Z AUTO 25011G22KT 10SM CLR 24/11 A2962 RMK AO2 SLP014
T02440106 56015


USA.gov is the U.S. government's official web portal to all federal, state and local government web resources and services.